Time;durP1;ratioP1;P1;durP2;ratioP2;P2;SDS_P1;SDS_P2;PMS_P1;PMS_P2;Temp;Humidity;BMP_temperature;BMP_pressure;BME280_temperature;BME280_humidity;BME280_pressure;Samples;Min_cycle;Max_cycle;Signal;HPM_P1;HPM_P2
2021/06/14 00:03:06;;;;;;;3.63;2.20;;;;;;;11.20;63.51;100476.58;254381;1104;115545;-73
2021/06/14 00:08:14;;;;;;;2.55;2.43;;;;;;;11.10;62.93;100477.08;254331;1103;115813;-74
2021/06/14 00:13:18;;;;;;;3.80;2.60;;;;;;;11.04;63.65;100488.63;256464;1103;115337;-72
2021/06/14 00:18:21;;;;;;;5.60;2.18;;;;;;;10.97;64.39;100481.73;254434;1103;114774;-73
2021/06/14 00:23:28;;;;;;;3.65;2.10;;;;;;;10.92;64.45;100479.72;255068;1103;114767;-70
2021/06/14 00:28:32;;;;;;;11.20;2.17;;;;;;;10.86;65.24;100480.59;254460;1103;115420;-73
2021/06/14 00:33:37;;;;;;;9.08;3.25;;;;;;;10.80;65.10;100478.78;255264;1094;115442;-72
2021/06/14 00:38:41;;;;;;;4.43;2.50;;;;;;;10.74;65.07;100483.14;254359;1104;115383;-72
2021/06/14 00:43:46;;;;;;;4.28;1.68;;;;;;;10.69;65.12;100484.84;254529;1102;115995;-72
2021/06/14 00:48:51;;;;;;;12.55;2.05;;;;;;;10.62;65.11;100489.41;254487;1097;115716;-71
2021/06/14 00:54:01;;;;;;;2.08;1.98;;;;;;;10.58;65.49;100486.35;254583;1101;115388;-70
2021/06/14 00:59:04;;;;;;;4.63;2.68;;;;;;;10.45;65.50;100489.91;254521;1102;115633;-71
2021/06/14 01:04:07;;;;;;;1.93;1.68;;;;;;;10.32;64.96;100486.53;254533;1102;116240;-70
2021/06/14 01:09:10;;;;;;;3.23;2.93;;;;;;;10.10;65.70;100485.99;255256;1103;115239;-70
2021/06/14 01:14:17;;;;;;;4.20;2.10;;;;;;;9.94;66.45;100487.31;254812;1103;115234;-70
2021/06/14 01:19:20;;;;;;;;;;;;;;;9.79;66.52;100482.25;254495;1103;116021;-71
2021/06/14 01:24:45;;;;;;;5.88;2.58;;;;;;;9.70;66.92;100502.17;255006;1097;103160;-72
2021/06/14 01:29:51;;;;;;;5.33;2.83;;;;;;;9.60;66.85;100500.97;254680;1102;115216;-73
2021/06/14 01:34:56;;;;;;;2.95;1.80;;;;;;;9.53;67.31;100500.98;254244;1097;115626;-74
2021/06/14 01:40:01;;;;;;;3.03;1.88;;;;;;;9.44;66.97;100496.92;254212;1097;115395;-76
2021/06/14 01:45:06;;;;;;;4.25;2.35;;;;;;;9.32;66.97;100487.94;254290;1103;115935;-72
2021/06/14 01:50:11;;;;;;;2.95;2.45;;;;;;;9.23;67.35;100483.85;256023;1096;115685;-73
2021/06/14 01:55:16;;;;;;;3.70;2.45;;;;;;;9.18;66.94;100494.30;255500;1102;116547;-74
2021/06/14 02:00:24;;;;;;;5.80;2.40;;;;;;;9.06;68.17;100494.94;254737;1094;115397;-72
2021/06/14 02:05:31;;;;;;;2.68;2.28;;;;;;;8.95;67.61;100486.75;256616;1102;114789;-72
2021/06/14 02:10:36;;;;;;;2.60;2.25;;;;;;;8.83;68.35;100488.42;256972;1104;115376;-73
2021/06/14 02:15:40;;;;;;;5.77;2.33;;;;;;;8.70;68.79;100489.22;254554;1104;115607;-74
2021/06/14 02:20:44;;;;;;;1.98;1.50;;;;;;;8.69;69.28;100479.61;254216;1103;115894;-74
2021/06/14 02:25:47;;;;;;;3.60;2.87;;;;;;;8.58;68.57;100477.55;254354;1103;116817;-75
2021/06/14 02:30:51;;;;;;;3.18;2.88;;;;;;;8.55;68.90;100477.98;254499;1104;115478;-73
2021/06/14 02:35:54;;;;;;;7.13;3.55;;;;;;;8.57;70.09;100473.25;254264;1103;115264;-73
2021/06/14 02:40:57;;;;;;;6.18;2.98;;;;;;;8.71;69.48;100483.70;255228;1103;115174;-74
2021/06/14 02:46:00;;;;;;;5.93;2.63;;;;;;;8.88;70.05;100484.09;255164;1102;114820;-73
2021/06/14 02:51:05;;;;;;;8.05;3.20;;;;;;;9.01;70.98;100488.59;254426;1103;115621;-73
2021/06/14 02:56:12;;;;;;;6.45;3.88;;;;;;;9.12;70.21;100493.30;254367;1103;114545;-73
2021/06/14 03:01:15;;;;;;;7.85;3.80;;;;;;;9.26;69.69;100488.77;254376;1104;115650;-73
2021/06/14 03:06:20;;;;;;;6.38;3.65;;;;;;;9.27;70.43;100490.40;254434;1102;114991;-72
2021/06/14 03:11:28;;;;;;;5.25;3.20;;;;;;;9.17;69.72;100484.70;254868;1103;115194;-73
2021/06/14 03:16:31;;;;;;;2.68;2.48;;;;;;;9.11;69.39;100492.48;254492;1103;116054;-73
2021/06/14 03:21:38;;;;;;;6.50;4.85;;;;;;;9.18;69.63;100491.63;254928;1102;114757;-73
2021/06/14 03:26:43;;;;;;;5.07;4.20;;;;;;;9.24;70.01;100494.29;254409;1104;117355;-73
2021/06/14 03:31:49;;;;;;;9.03;4.93;;;;;;;9.36;70.64;100489.16;254448;1097;116918;-73
2021/06/14 03:36:54;;;;;;;6.55;5.30;;;;;;;9.47;70.43;100491.19;254501;1104;116223;-73
2021/06/14 03:41:57;;;;;;;4.25;3.55;;;;;;;9.75;70.44;100491.71;254398;1103;116404;-72
2021/06/14 03:47:01;;;;;;;6.63;3.40;;;;;;;10.06;70.55;100492.80;255083;1097;115085;-73
2021/06/14 03:52:05;;;;;;;6.83;3.85;;;;;;;10.25;70.36;100491.89;254417;1104;115411;-73
2021/06/14 03:57:09;;;;;;;4.05;3.63;;;;;;;10.49;70.53;100492.97;255727;1101;115347;-73
2021/06/14 04:02:13;;;;;;;7.75;4.08;;;;;;;10.77;70.33;100490.70;254385;1101;115141;-74
2021/06/14 04:07:16;;;;;;;8.83;4.57;;;;;;;11.03;70.21;100488.84;254629;1101;115210;-74
2021/06/14 04:12:19;;;;;;;8.53;4.03;;;;;;;11.26;70.28;100496.24;257011;1103;115602;-72
2021/06/14 04:17:24;;;;;;;4.67;3.53;;;;;;;11.55;69.90;100490.18;255946;1104;117218;-72
2021/06/14 04:22:32;;;;;;;7.53;4.00;;;;;;;11.97;69.37;100492.98;254615;1104;117217;-73
2021/06/14 04:27:35;;;;;;;6.25;4.33;;;;;;;12.31;69.22;100494.16;254447;1104;119924;-73
2021/06/14 04:32:38;;;;;;;6.43;4.20;;;;;;;14.13;67.48;100501.00;254205;1102;116125;-73
2021/06/14 04:37:41;;;;;;;7.53;4.13;;;;;;;19.03;61.42;100498.02;254381;1104;115821;-70
2021/06/14 04:42:44;;;;;;;7.88;4.13;;;;;;;23.33;56.18;100496.88;254800;1102;115908;-72
2021/06/14 04:47:47;;;;;;;9.30;4.40;;;;;;;23.61;53.53;100498.52;254453;1104;115782;-72
2021/06/14 04:52:51;;;;;;;8.53;5.23;;;;;;;23.09;52.11;100492.42;254339;1096;116971;-72
2021/06/14 04:57:54;;;;;;;6.20;5.38;;;;;;;21.78;52.00;100501.41;254530;1102;116595;-72
2021/06/14 05:02:58;;;;;;;8.28;5.45;;;;;;;21.54;51.18;100499.80;254321;1103;115764;-72
2021/06/14 05:08:03;;;;;;;6.67;4.70;;;;;;;24.12;48.02;100513.81;254477;1103;115509;-71
2021/06/14 05:13:08;;;;;;;6.78;5.18;;;;;;;28.08;43.82;100510.99;254782;1103;115598;-73
2021/06/14 05:18:12;;;;;;;5.58;4.98;;;;;;;31.20;40.41;100532.54;254503;1104;115547;-75
2021/06/14 05:23:16;;;;;;;7.50;4.67;;;;;;;33.78;37.47;100528.93;254448;1103;117636;-76
2021/06/14 05:28:19;;;;;;;7.63;4.25;;;;;;;35.41;34.00;100534.88;254464;1104;116423;-76
2021/06/14 05:33:24;;;;;;;4.80;3.97;;;;;;;36.81;32.38;100531.72;254821;1104;115334;-78
2021/06/14 05:38:28;;;;;;;6.65;2.88;;;;;;;38.06;29.76;100530.55;254548;1097;114975;-78
2021/06/14 05:43:32;;;;;;;5.45;3.43;;;;;;;38.64;27.98;100537.53;254739;1097;118427;-77
2021/06/14 05:48:36;;;;;;;5.40;2.97;;;;;;;39.15;26.45;100531.23;255526;1104;115412;-76
2021/06/14 05:53:40;;;;;;;9.08;4.10;;;;;;;39.54;25.00;100536.53;255904;1103;114579;-77
2021/06/14 05:58:43;;;;;;;5.03;3.60;;;;;;;39.83;24.51;100533.45;257452;1104;114940;-77
2021/06/14 06:03:47;;;;;;;4.93;2.95;;;;;;;40.63;24.63;100527.36;256785;1102;115411;-77
2021/06/14 06:08:51;;;;;;;3.73;3.20;;;;;;;40.93;22.62;100518.95;257342;1103;115421;-78
2021/06/14 06:13:54;;;;;;;6.40;2.85;;;;;;;41.22;22.24;100518.52;255955;1097;115189;-76
2021/06/14 06:18:57;;;;;;;9.63;3.75;;;;;;;41.20;21.39;100513.36;255398;1102;115135;-78
2021/06/14 06:24:00;;;;;;;4.35;2.83;;;;;;;41.06;21.30;100516.34;256056;1102;115549;-78
2021/06/14 06:29:04;;;;;;;4.33;2.75;;;;;;;40.71;21.26;100517.64;254452;1102;116042;-76
2021/06/14 06:34:13;;;;;;;3.90;2.95;;;;;;;40.77;20.45;100520.79;254553;1104;115749;-77
2021/06/14 06:39:19;;;;;;;5.33;3.30;;;;;;;40.50;21.06;100526.33;254566;1104;115554;-77
2021/06/14 06:44:23;;;;;;;4.33;3.10;;;;;;;40.15;21.10;100528.33;254603;1104;115369;-78
2021/06/14 06:49:25;;;;;;;5.18;2.85;;;;;;;40.10;20.80;100520.41;254742;1104;115081;-76
2021/06/14 06:54:29;;;;;;;2.73;2.50;;;;;;;39.95;20.60;100517.01;254430;1103;114981;-77
2021/06/14 06:59:33;;;;;;;6.00;2.50;;;;;;;39.33;20.23;100517.17;255654;1104;115514;-77
2021/06/14 07:04:37;;;;;;;2.23;2.13;;;;;;;38.83;20.59;100514.71;254329;1097;114984;-72
2021/06/14 07:09:41;;;;;;;4.10;3.00;;;;;;;38.37;20.55;100515.75;254910;1104;118322;-77
2021/06/14 07:14:45;;;;;;;3.93;2.60;;;;;;;37.91;21.18;100513.11;254474;1104;115624;-76
2021/06/14 07:19:51;;;;;;;2.60;2.33;;;;;;;37.71;21.20;100511.95;254546;1103;115374;-74
2021/06/14 07:24:55;;;;;;;3.03;2.25;;;;;;;36.73;21.86;100511.45;254471;1097;115383;-76
2021/06/14 07:30:00;;;;;;;2.83;1.60;;;;;;;35.46;22.89;100511.55;254564;1103;115949;-76
2021/06/14 07:35:05;;;;;;;3.60;2.45;;;;;;;34.24;23.17;100503.89;254429;1103;115802;-75
2021/06/14 07:40:09;;;;;;;10.13;2.70;;;;;;;33.16;24.53;100501.80;254510;1104;115801;-74
2021/06/14 07:45:20;;;;;;;3.20;2.90;;;;;;;32.15;24.97;100496.25;254581;1104;115616;-75
2021/06/14 07:50:24;;;;;;;3.05;2.70;;;;;;;31.30;26.77;100499.77;254315;1097;114910;-77
2021/06/14 07:55:29;;;;;;;5.83;3.30;;;;;;;30.80;26.91;100501.20;254351;1101;116158;-77
2021/06/14 08:00:34;;;;;;;4.20;2.08;;;;;;;30.13;27.91;100500.05;254442;1104;118109;-77
2021/06/14 08:05:39;;;;;;;3.53;1.90;;;;;;;29.66;27.94;100494.24;255270;1103;114684;-77
2021/06/14 08:10:50;;;;;;;1.87;1.77;;;;;;;29.07;28.99;100496.58;257002;1103;115307;-76
2021/06/14 08:15:58;;;;;;;9.20;3.53;;;;;;;28.56;29.31;100493.20;255499;1104;115812;-76
2021/06/14 08:21:27;;;;;;;3.65;2.90;;;;;;;28.13;30.36;100488.84;257358;1103;114889;-77
2021/06/14 08:26:35;;;;;;;3.03;2.27;;;;;;;27.86;30.37;100489.36;257355;1104;115575;-77
2021/06/14 08:31:38;;;;;;;5.38;3.05;;;;;;;27.53;30.54;100480.97;255685;1103;114770;-76
2021/06/14 08:36:43;;;;;;;;;;;;;;;27.37;31.33;100486.22;255643;1103;115548;-77
2021/06/14 08:41:48;;;;;;;3.95;3.40;;;;;;;27.30;31.77;100479.64;255635;1104;102985;-77
2021/06/14 08:46:55;;;;;;;6.18;2.25;;;;;;;26.87;31.07;100487.97;254413;1104;115204;-75
2021/06/14 08:52:00;;;;;;;4.40;3.25;;;;;;;26.69;31.54;100482.52;254860;1102;115518;-77
2021/06/14 08:57:05;;;;;;;4.28;3.55;;;;;;;26.62;32.56;100482.20;254480;1104;115343;-75
2021/06/14 09:02:09;;;;;;;6.63;3.63;;;;;;;26.40;32.45;100483.19;254402;1103;115436;-74
2021/06/14 09:07:13;;;;;;;4.23;2.95;;;;;;;26.21;33.25;100477.23;255509;1102;114693;-72
2021/06/14 09:12:17;;;;;;;3.90;2.73;;;;;;;26.32;32.98;100475.79;254477;1102;115651;-75
2021/06/14 09:17:21;;;;;;;6.65;2.83;;;;;;;26.22;32.07;100476.10;254531;1103;115225;-74
2021/06/14 09:22:26;;;;;;;2.03;1.63;;;;;;;26.17;32.33;100474.33;254870;1104;115360;-74
2021/06/14 09:27:35;;;;;;;4.78;3.03;;;;;;;26.04;32.23;100463.53;254517;1104;116071;-77
2021/06/14 09:33:01;;;;;;;6.60;3.18;;;;;;;25.82;32.73;100462.55;254603;1097;116989;-75
2021/06/14 09:38:13;;;;;;;4.28;2.88;;;;;;;25.76;32.63;100450.17;254279;1097;117283;-74
2021/06/14 09:43:23;;;;;;;4.65;2.90;;;;;;;25.74;33.52;100459.80;255088;1104;116173;-74
2021/06/14 09:48:30;;;;;;;5.40;2.50;;;;;;;25.90;33.79;100446.50;254868;1104;116084;-75
2021/06/14 09:53:47;;;;;;;3.27;2.00;;;;;;;25.98;33.39;100448.45;254611;1101;195301;-75
2021/06/14 09:58:53;;;;;;;3.50;2.63;;;;;;;25.78;33.26;100450.66;254488;1102;116150;-74
2021/06/14 10:03:59;;;;;;;3.45;2.58;;;;;;;25.64;32.99;100447.27;254348;1104;116217;-73
2021/06/14 10:09:09;;;;;;;2.50;2.25;;;;;;;25.79;33.72;100443.27;254436;1104;115409;-75
2021/06/14 10:14:16;;;;;;;2.75;2.35;;;;;;;25.76;33.18;100438.44;254750;1103;116208;-76
2021/06/14 10:19:20;;;;;;;3.88;2.50;;;;;;;25.05;33.17;100435.80;256156;1104;116910;-77
2021/06/14 10:24:24;;;;;;;4.13;2.18;;;;;;;24.80;33.62;100436.42;256304;1104;117313;-76
2021/06/14 10:29:28;;;;;;;3.43;2.33;;;;;;;25.09;33.18;100434.03;256633;1104;114950;-74
2021/06/14 10:34:31;;;;;;;3.43;2.40;;;;;;;24.89;33.35;100426.38;257031;1102;115214;-76
2021/06/14 10:39:35;;;;;;;4.48;2.15;;;;;;;25.14;34.01;100428.45;254502;1104;116147;-75
2021/06/14 10:44:39;;;;;;;4.83;2.55;;;;;;;25.29;33.09;100415.51;256157;1104;116625;-74
2021/06/14 10:49:44;;;;;;;4.43;2.20;;;;;;;25.10;32.53;100415.74;254518;1104;116305;-75
2021/06/14 10:54:49;;;;;;;4.90;2.23;;;;;;;25.04;32.34;100409.64;254903;1104;117481;-75
2021/06/14 10:59:54;;;;;;;2.95;1.98;;;;;;;25.33;33.14;100391.92;254199;1104;116303;-74
2021/06/14 11:05:05;;;;;;;2.40;2.18;;;;;;;25.48;33.08;100405.92;255818;1103;116211;-75
2021/06/14 11:10:15;;;;;;;4.00;1.90;;;;;;;25.62;32.45;100403.06;254463;1097;117301;-75
2021/06/14 11:15:32;;;;;;;3.75;2.38;;;;;;;25.65;32.77;100388.81;255066;1104;116651;-75
2021/06/14 11:20:40;;;;;;;2.00;1.90;;;;;;;25.86;32.41;100386.25;254493;1104;116469;-75
2021/06/14 11:25:44;;;;;;;1.58;1.33;;;;;;;25.69;31.61;100387.02;254699;1104;116069;-75
2021/06/14 11:30:49;;;;;;;1.48;1.38;;;;;;;24.77;31.33;100380.59;254725;1103;116127;-76
2021/06/14 11:35:58;;;;;;;3.08;2.35;;;;;;;24.70;32.23;100365.83;255156;1096;115769;-75
2021/06/14 11:41:03;;;;;;;4.68;2.35;;;;;;;24.95;32.56;100370.61;254452;1103;117007;-75
2021/06/14 11:46:22;;;;;;;2.40;2.20;;;;;;;24.78;32.57;100368.57;254668;1102;115831;-75
2021/06/14 11:51:33;;;;;;;2.20;2.05;;;;;;;24.23;33.00;100373.52;254648;1103;115513;-76
2021/06/14 11:56:38;;;;;;;1.65;1.40;;;;;;;24.24;32.37;100356.06;254724;1104;116040;-73
2021/06/14 12:01:43;;;;;;;1.50;1.45;;;;;;;24.43;33.00;100359.44;254719;1104;115306;-75
2021/06/14 12:06:49;;;;;;;5.05;2.05;;;;;;;24.77;32.94;100349.80;254454;1104;115462;-74
2021/06/14 12:12:03;;;;;;;1.77;1.67;;;;;;;24.90;32.68;100350.82;254630;1103;114783;-75
2021/06/14 12:17:07;;;;;;;2.93;1.95;;;;;;;24.48;32.54;100342.92;255796;1104;115643;-74
2021/06/14 12:22:12;;;;;;;1.53;1.38;;;;;;;24.74;31.93;100345.00;256432;1096;115408;-75
2021/06/14 12:27:15;;;;;;;2.00;1.80;;;;;;;25.03;32.74;100336.31;254513;1103;116640;-75
2021/06/14 12:32:19;;;;;;;1.83;1.73;;;;;;;25.22;32.14;100338.76;257283;1104;116045;-75
2021/06/14 12:37:24;;;;;;;1.80;1.68;;;;;;;25.26;31.87;100334.27;255096;1104;116765;-76
2021/06/14 12:42:29;;;;;;;5.13;1.73;;;;;;;24.96;31.63;100338.69;255864;1104;115716;-77
2021/06/14 12:47:35;;;;;;;1.67;1.57;;;;;;;24.85;31.60;100329.95;256768;1103;115673;-73
2021/06/14 12:52:40;;;;;;;2.13;2.00;;;;;;;24.73;31.53;100324.30;257316;1102;115167;-76
2021/06/14 12:57:44;;;;;;;1.80;1.70;;;;;;;24.78;32.36;100315.96;256487;1101;115657;-76
2021/06/14 13:02:53;;;;;;;2.68;2.05;;;;;;;25.01;32.22;100314.80;254509;1101;115254;-75
2021/06/14 13:08:16;;;;;;;4.73;1.73;;;;;;;25.06;32.03;100322.84;254429;1103;115706;-74
2021/06/14 13:13:19;;;;;;;2.63;2.18;;;;;;;24.97;31.36;100300.19;255213;1104;115930;-75
2021/06/14 13:18:24;;;;;;;2.00;1.90;;;;;;;25.03;31.52;100307.11;255351;1103;115326;-75
2021/06/14 13:23:27;;;;;;;5.73;2.15;;;;;;;25.13;32.18;100292.35;255541;1104;115545;-75
2021/06/14 13:28:39;;;;;;;5.05;2.38;;;;;;;25.12;31.93;100294.27;254419;1102;115733;-74
2021/06/14 13:33:51;;;;;;;1.78;1.68;;;;;;;25.04;32.09;100278.72;254881;1104;115768;-76
2021/06/14 13:38:56;;;;;;;3.35;2.50;;;;;;;24.91;32.23;100293.23;254615;1103;115400;-76
2021/06/14 13:44:11;;;;;;;4.23;2.43;;;;;;;24.83;31.91;100288.55;254772;1104;115780;-75
2021/06/14 13:49:45;;;;;;;2.50;1.80;;;;;;;24.84;31.98;100284.70;254476;1103;116250;-75
2021/06/14 13:54:58;;;;;;;2.00;1.78;;;;;;;24.77;32.82;100284.36;254455;1104;116366;-72
2021/06/14 14:00:11;;;;;;;2.38;2.18;;;;;;;24.82;32.51;100284.22;255273;1103;115648;-76
2021/06/14 14:05:23;;;;;;;2.10;1.95;;;;;;;24.71;32.09;100280.19;255385;1104;117764;-73
2021/06/14 14:10:29;;;;;;;4.65;2.13;;;;;;;24.56;32.07;100277.88;254465;1096;119123;-75
2021/06/14 14:15:32;;;;;;;2.73;2.15;;;;;;;24.50;32.11;100269.03;254489;1104;116146;-74
2021/06/14 14:20:36;;;;;;;2.28;2.00;;;;;;;24.51;32.39;100265.19;254335;1104;117303;-75
2021/06/14 14:25:39;;;;;;;3.38;2.00;;;;;;;24.48;31.76;100247.54;254175;1097;116704;-75
2021/06/14 14:30:49;;;;;;;3.70;2.63;;;;;;;24.32;31.79;100230.02;254381;1104;116262;-75
2021/06/14 14:36:13;;;;;;;2.27;2.07;;;;;;;24.23;31.41;100229.13;257255;1103;116549;-74
2021/06/14 14:41:20;;;;;;;2.90;2.18;;;;;;;24.21;32.01;100219.67;256360;1104;117448;-73
2021/06/14 14:46:26;;;;;;;2.50;2.03;;;;;;;24.08;31.32;100221.38;254405;1104;118592;-74
2021/06/14 14:51:30;;;;;;;4.25;2.40;;;;;;;23.91;31.87;100224.00;254411;1104;116535;-77
2021/06/14 14:56:34;;;;;;;2.03;1.87;;;;;;;23.78;31.79;100212.89;254507;1103;117131;-73
2021/06/14 15:01:39;;;;;;;4.05;2.08;;;;;;;23.64;32.68;100211.34;254585;1104;116130;-72
2021/06/14 15:06:44;;;;;;;4.13;1.65;;;;;;;23.50;33.10;100205.94;254209;1103;116845;-70
2021/06/14 15:11:48;;;;;;;3.90;2.33;;;;;;;23.55;33.06;100205.02;255737;1103;116617;-71
2021/06/14 15:16:51;;;;;;;2.33;1.65;;;;;;;23.59;32.80;100203.30;254384;1103;117889;-75
2021/06/14 15:21:56;;;;;;;1.75;1.60;;;;;;;23.58;33.02;100199.77;254535;1097;116772;-73
2021/06/14 15:26:59;;;;;;;2.33;1.65;;;;;;;23.43;32.73;100192.77;254877;1096;118388;-75
2021/06/14 15:32:03;;;;;;;1.88;1.78;;;;;;;23.38;33.21;100197.52;254534;1103;115928;-76
2021/06/14 15:37:07;;;;;;;2.38;2.25;;;;;;;23.31;33.45;100203.38;254436;1104;116557;-73
2021/06/14 15:42:16;;;;;;;2.88;1.65;;;;;;;23.24;33.28;100204.91;254269;1104;116721;-75
2021/06/14 15:47:21;;;;;;;3.48;2.18;;;;;;;23.15;33.33;100197.50;254650;1104;117504;-76
2021/06/14 15:52:25;;;;;;;2.03;1.83;;;;;;;23.13;33.34;100199.73;254261;1104;117424;-76
2021/06/14 15:57:28;;;;;;;2.63;2.25;;;;;;;23.08;33.68;100202.55;254663;1097;115961;-75
2021/06/14 16:02:31;;;;;;;4.07;2.27;;;;;;;23.03;33.81;100199.95;254321;1104;117519;-77
2021/06/14 16:07:36;;;;;;;2.60;2.00;;;;;;;22.89;33.83;100199.19;254150;1103;116589;-76
2021/06/14 16:12:41;;;;;;;4.70;2.60;;;;;;;22.76;33.71;100192.63;254386;1103;115205;-76
2021/06/14 16:17:45;;;;;;;2.67;2.23;;;;;;;22.70;34.19;100199.27;254361;1103;208168;-74
2021/06/14 16:22:49;;;;;;;2.50;2.30;;;;;;;22.61;34.51;100198.39;255499;1103;116729;-76
2021/06/14 16:27:53;;;;;;;2.50;2.15;;;;;;;22.53;33.56;100198.29;254269;1103;115135;-74
2021/06/14 16:32:59;;;;;;;4.33;2.53;;;;;;;22.46;33.51;100185.91;254488;1104;115386;-75
2021/06/14 16:38:03;;;;;;;2.30;2.10;;;;;;;22.39;33.91;100190.94;255308;1102;115148;-75
2021/06/14 16:43:08;;;;;;;3.88;2.80;;;;;;;22.29;34.83;100179.48;254604;1102;115802;-72
2021/06/14 16:48:11;;;;;;;3.48;2.85;;;;;;;22.11;35.25;100184.69;254890;1103;116379;-72
2021/06/14 16:53:15;;;;;;;4.70;2.40;;;;;;;22.04;35.38;100178.03;255298;1103;115223;-72
2021/06/14 16:58:19;;;;;;;3.33;2.80;;;;;;;21.99;36.25;100181.64;257192;1104;115407;-72
2021/06/14 17:03:22;;;;;;;5.33;2.50;;;;;;;21.95;36.95;100186.05;255992;1104;116445;-73
2021/06/14 17:08:25;;;;;;;3.40;2.33;;;;;;;21.92;36.51;100177.70;254949;1104;115833;-73
2021/06/14 17:13:28;;;;;;;6.30;3.18;;;;;;;21.82;37.42;100179.48;254323;1103;117202;-73
2021/06/14 17:18:31;;;;;;;2.53;1.90;;;;;;;21.72;36.99;100176.13;254295;1104;116750;-73
2021/06/14 17:23:35;;;;;;;2.73;2.53;;;;;;;21.60;37.40;100176.63;254473;1104;115847;-72
2021/06/14 17:28:40;;;;;;;4.02;2.28;;;;;;;21.44;39.16;100181.48;254679;1104;115588;-78
2021/06/14 17:33:44;;;;;;;3.63;2.43;;;;;;;21.27;39.30;100181.22;254312;1097;117549;-77
2021/06/14 17:38:50;;;;;;;2.78;2.43;;;;;;;21.11;40.47;100186.02;254565;1103;116814;-76
2021/06/14 17:43:53;;;;;;;3.50;3.20;;;;;;;20.94;40.90;100183.02;255093;1104;115824;-77
2021/06/14 17:48:56;;;;;;;3.43;2.63;;;;;;;20.77;41.27;100180.02;254444;1104;116172;-76
2021/06/14 17:54:06;;;;;;;6.08;1.90;;;;;;;20.56;41.51;100174.04;254142;1102;115821;-72
2021/06/14 17:59:12;;;;;;;2.83;2.05;;;;;;;20.36;42.07;100177.78;254459;1103;116970;-74
2021/06/14 18:04:15;;;;;;;4.33;2.40;;;;;;;20.16;43.17;100178.83;254153;1102;115651;-74
2021/06/14 18:09:19;;;;;;;2.68;2.45;;;;;;;19.94;43.37;100175.78;254272;1103;116243;-75
2021/06/14 18:14:22;;;;;;;2.70;2.55;;;;;;;19.77;44.61;100178.94;254378;1102;115861;-75
2021/06/14 18:19:25;;;;;;;7.50;2.65;;;;;;;19.56;45.24;100172.10;254442;1103;117169;-75
2021/06/14 18:24:28;;;;;;;5.35;2.28;;;;;;;19.33;45.62;100186.29;254365;1103;117243;-76
2021/06/14 18:29:31;;;;;;;4.23;2.58;;;;;;;19.06;46.25;100179.45;254318;1104;116361;-76
2021/06/14 18:34:35;;;;;;;3.70;2.55;;;;;;;18.78;47.13;100174.75;254360;1104;115775;-73
2021/06/14 18:39:38;;;;;;;4.65;2.93;;;;;;;18.56;47.57;100179.69;254538;1098;117127;-73
2021/06/14 18:44:42;;;;;;;4.07;2.10;;;;;;;18.32;48.18;100182.22;254523;1098;116365;-71
2021/06/14 18:49:46;;;;;;;3.87;3.27;;;;;;;18.10;48.93;100179.83;254476;1103;115907;-71
2021/06/14 18:54:51;;;;;;;10.80;2.85;;;;;;;17.76;49.41;100183.11;254468;1103;116553;-76
2021/06/14 18:59:53;;;;;;;2.53;2.00;;;;;;;17.43;50.23;100181.73;255456;1104;115842;-74
2021/06/14 19:05:16;;;;;;;5.13;3.13;;;;;;;17.10;50.49;100193.03;257469;1103;114582;-74
2021/06/14 19:10:22;;;;;;;4.33;2.43;;;;;;;16.88;51.28;100195.92;255894;1103;114997;-72
2021/06/14 19:15:25;;;;;;;2.98;2.65;;;;;;;16.69;51.86;100197.48;255836;1104;115133;-73
2021/06/14 19:20:30;;;;;;;3.00;2.43;;;;;;;16.39;52.43;100196.25;254461;1104;115459;-73
2021/06/14 19:25:35;;;;;;;2.78;2.58;;;;;;;16.03;53.29;100203.30;255269;1104;116363;-72
2021/06/14 19:30:39;;;;;;;2.83;2.63;;;;;;;15.85;54.21;100206.41;254497;1104;115424;-72
2021/06/14 19:35:43;;;;;;;2.53;2.30;;;;;;;15.61;54.37;100203.25;254440;1103;117169;-73
2021/06/14 19:40:48;;;;;;;7.05;3.45;;;;;;;15.41;54.97;100205.73;254640;1104;116360;-74
2021/06/14 19:45:51;;;;;;;3.35;2.93;;;;;;;15.20;55.85;100212.80;254622;1104;116157;-75
2021/06/14 19:50:56;;;;;;;2.35;2.15;;;;;;;14.93;56.16;100207.42;255152;1104;116143;-75
2021/06/14 19:56:00;;;;;;;9.83;2.98;;;;;;;14.67;56.43;100200.95;254357;1104;116310;-72
2021/06/14 20:01:04;;;;;;;7.40;2.93;;;;;;;14.43;56.88;100203.04;254545;1103;115834;-75
2021/06/14 20:06:12;;;;;;;3.33;3.00;;;;;;;14.19;57.56;100204.30;255311;1096;115716;-76
2021/06/14 20:11:18;;;;;;;3.28;2.80;;;;;;;14.00;57.65;100201.09;254480;1096;116397;-76
2021/06/14 20:16:22;;;;;;;6.18;4.25;;;;;;;13.83;58.45;100202.95;254178;1104;115516;-74
2021/06/14 20:21:28;;;;;;;6.33;3.08;;;;;;;13.77;59.09;100196.70;254347;1103;116301;-75
2021/06/14 20:26:32;;;;;;;3.70;3.25;;;;;;;13.67;59.11;100196.56;254397;1096;115560;-74
2021/06/14 20:31:35;;;;;;;4.03;3.70;;;;;;;13.55;59.78;100198.49;254632;1103;115176;-73
2021/06/14 20:36:40;;;;;;;7.03;4.00;;;;;;;13.49;60.44;100215.53;255267;1104;116185;-73
2021/06/14 20:41:43;;;;;;;5.30;4.80;;;;;;;13.48;60.85;100206.67;254552;1104;116615;-71
2021/06/14 20:46:49;;;;;;;5.00;3.98;;;;;;;13.39;60.62;100210.83;256117;1104;116120;-72
2021/06/14 20:51:53;;;;;;;7.03;3.83;;;;;;;13.21;60.90;100220.91;256951;1104;117034;-71
2021/06/14 20:56:57;;;;;;;4.73;4.20;;;;;;;13.08;61.43;100225.50;257607;1101;115867;-71
2021/06/14 21:02:01;;;;;;;8.80;5.77;;;;;;;13.07;61.56;100223.88;257589;1104;115984;-70
2021/06/14 21:07:04;;;;;;;4.70;3.75;;;;;;;13.07;61.40;100226.55;257517;1104;115206;-72
2021/06/14 21:12:08;;;;;;;5.70;4.55;;;;;;;13.00;61.60;100225.87;256593;1103;115424;-75
2021/06/14 21:17:12;;;;;;;5.58;4.03;;;;;;;12.80;61.65;100225.48;254652;1101;116479;-74
2021/06/14 21:22:16;;;;;;;5.83;3.40;;;;;;;12.65;62.42;100230.51;254563;1101;115387;-73
2021/06/14 21:27:20;;;;;;;4.28;3.95;;;;;;;12.47;62.73;100234.16;255031;1103;115037;-73
2021/06/14 21:32:23;;;;;;;7.13;3.35;;;;;;;12.27;63.18;100231.83;254966;1103;115991;-72
2021/06/14 21:37:26;;;;;;;5.33;3.78;;;;;;;12.13;63.62;100219.77;254338;1097;115921;-72
2021/06/14 21:42:30;;;;;;;4.73;4.08;;;;;;;12.03;64.39;100222.20;255361;1104;138559;-73
2021/06/14 21:47:34;;;;;;;7.08;5.88;;;;;;;12.01;64.43;100216.27;254505;1104;116717;-75
2021/06/14 21:52:38;;;;;;;7.43;4.68;;;;;;;12.06;64.85;100224.41;254318;1103;116181;-75
2021/06/14 21:57:44;;;;;;;5.60;5.08;;;;;;;12.08;64.76;100217.80;254470;1104;114755;-75
2021/06/14 22:02:51;;;;;;;7.15;3.95;;;;;;;11.91;64.77;100216.06;254584;1104;115354;-75
2021/06/14 22:07:56;;;;;;;5.78;3.98;;;;;;;11.68;64.98;100220.28;254852;1104;115872;-74
2021/06/14 22:13:10;;;;;;;6.70;3.10;;;;;;;11.52;64.97;100212.95;254978;1104;116248;-75
2021/06/14 22:18:14;;;;;;;11.40;4.98;;;;;;;11.43;65.16;100227.66;254348;1104;116861;-74
2021/06/14 22:23:19;;;;;;;9.30;4.73;;;;;;;11.36;65.48;100225.08;254504;1104;116572;-77
2021/06/14 22:28:24;;;;;;;9.17;5.13;;;;;;;11.36;66.00;100219.74;254477;1104;116146;-77
2021/06/14 22:33:28;;;;;;;7.83;4.45;;;;;;;11.28;66.37;100221.95;254499;1104;116367;-77
2021/06/14 22:38:31;;;;;;;9.88;4.48;;;;;;;11.17;66.91;100215.52;254482;1103;116271;-77
2021/06/14 22:43:35;;;;;;;4.48;3.78;;;;;;;11.09;66.61;100213.97;254474;1097;115782;-74
2021/06/14 22:48:38;;;;;;;6.77;5.77;;;;;;;11.10;66.70;100212.12;254360;1103;214390;-75
2021/06/14 22:53:41;;;;;;;6.25;4.95;;;;;;;11.14;66.87;100213.30;254532;1104;115316;-72
2021/06/14 22:58:45;;;;;;;7.60;4.33;;;;;;;11.14;66.79;100203.44;256345;1102;115491;-74
2021/06/14 23:03:48;;;;;;;5.73;5.15;;;;;;;11.03;66.87;100203.38;257452;1101;114549;-73
2021/06/14 23:08:52;;;;;;;12.93;6.13;;;;;;;10.94;67.21;100199.42;257401;1101;114945;-75